Oswego, New York
Current Conditions -  °F | °C
As of 2:54 PM on Thursday 18 Dec 2014 (Local Time) from KFZY Reporting Station
Overcast Overcast  
Wind Chill: 23°   Ceiling: 1500
Heat Index: 32°   Visibility: 10mi
Dew Point: 26°   Wind: 13mph
Humidity: 79%   Direction: 290°WNW
Pressure: 29.99"   Gusts: 22mph
Location:  43.46°N, 76.51°W
Report Text: KFZY 181954Z AUTO 29011G19KT 10SM OVC015 00/M03 A2999 RMK AO2 SLP162 T00001033
Loading
Personal Weather Stations






























Interactive Weather Map New forecast layout! Learn more

10-Day Weather Forecast

Advertisements
Track Severe Weather on mobile